sensor_id;sensor_type;location;lat;lon;timestamp;P1;durP1;ratioP1;P2;durP2;ratioP2
12852;SDS011;6495;51.808;7.478;2023-12-07T00:01:21;10.80;;;7.10;;
12852;SDS011;6495;51.808;7.478;2023-12-07T00:03:50;9.37;;;6.53;;
12852;SDS011;6495;51.808;7.478;2023-12-07T00:06:20;9.80;;;6.83;;
12852;SDS011;6495;51.808;7.478;2023-12-07T00:08:48;11.67;;;6.67;;
12852;SDS011;6495;51.808;7.478;2023-12-07T00:11:17;11.30;;;6.97;;
12852;SDS011;6495;51.808;7.478;2023-12-07T00:13:45;13.37;;;7.23;;
12852;SDS011;6495;51.808;7.478;2023-12-07T00:16:14;9.33;;;6.00;;
12852;SDS011;6495;51.808;7.478;2023-12-07T00:18:43;11.77;;;7.23;;
12852;SDS011;6495;51.808;7.478;2023-12-07T00:21:12;10.70;;;6.70;;
12852;SDS011;6495;51.808;7.478;2023-12-07T00:23:41;10.50;;;7.03;;
12852;SDS011;6495;51.808;7.478;2023-12-07T00:26:10;9.50;;;6.10;;
12852;SDS011;6495;51.808;7.478;2023-12-07T00:28:38;9.93;;;6.43;;
12852;SDS011;6495;51.808;7.478;2023-12-07T00:31:07;9.87;;;6.43;;
12852;SDS011;6495;51.808;7.478;2023-12-07T00:33:37;11.83;;;6.97;;
12852;SDS011;6495;51.808;7.478;2023-12-07T00:36:07;9.80;;;6.40;;
12852;SDS011;6495;51.808;7.478;2023-12-07T00:38:36;11.40;;;7.87;;
12852;SDS011;6495;51.808;7.478;2023-12-07T00:41:06;11.03;;;7.00;;
12852;SDS011;6495;51.808;7.478;2023-12-07T00:43:35;12.03;;;6.70;;
12852;SDS011;6495;51.808;7.478;2023-12-07T00:46:06;12.23;;;7.23;;
12852;SDS011;6495;51.808;7.478;2023-12-07T00:48:36;9.90;;;6.30;;
12852;SDS011;6495;51.808;7.478;2023-12-07T00:51:05;11.93;;;7.50;;
12852;SDS011;6495;51.808;7.478;2023-12-07T00:53:33;11.23;;;6.90;;
12852;SDS011;6495;51.808;7.478;2023-12-07T00:56:02;11.43;;;6.90;;
12852;SDS011;6495;51.808;7.478;2023-12-07T00:58:33;9.97;;;6.70;;
12852;SDS011;6495;51.808;7.478;2023-12-07T01:01:02;10.40;;;6.03;;
12852;SDS011;6495;51.808;7.478;2023-12-07T01:03:35;11.10;;;6.77;;
12852;SDS011;6495;51.808;7.478;2023-12-07T01:06:03;10.90;;;6.57;;
12852;SDS011;6495;51.808;7.478;2023-12-07T01:08:32;10.27;;;6.47;;
12852;SDS011;6495;51.808;7.478;2023-12-07T01:11:01;9.17;;;6.50;;
12852;SDS011;6495;51.808;7.478;2023-12-07T01:13:30;9.93;;;6.63;;
12852;SDS011;6495;51.808;7.478;2023-12-07T01:16:02;10.93;;;6.77;;
12852;SDS011;6495;51.808;7.478;2023-12-07T01:18:31;10.77;;;7.17;;
12852;SDS011;6495;51.808;7.478;2023-12-07T01:21:00;9.37;;;6.43;;
12852;SDS011;6495;51.808;7.478;2023-12-07T01:23:29;9.60;;;6.30;;
12852;SDS011;6495;51.808;7.478;2023-12-07T01:25:59;10.87;;;6.87;;
12852;SDS011;6495;51.808;7.478;2023-12-07T01:28:29;12.17;;;7.00;;
12852;SDS011;6495;51.808;7.478;2023-12-07T01:30:59;11.57;;;7.00;;
12852;SDS011;6495;51.808;7.478;2023-12-07T01:33:27;12.37;;;7.70;;
12852;SDS011;6495;51.808;7.478;2023-12-07T01:35:56;11.77;;;7.27;;
12852;SDS011;6495;51.808;7.478;2023-12-07T01:38:24;11.20;;;6.57;;
12852;SDS011;6495;51.808;7.478;2023-12-07T01:40:53;11.57;;;7.30;;
12852;SDS011;6495;51.808;7.478;2023-12-07T01:43:22;12.20;;;7.47;;
12852;SDS011;6495;51.808;7.478;2023-12-07T01:45:51;11.00;;;7.10;;
12852;SDS011;6495;51.808;7.478;2023-12-07T01:48:25;10.60;;;7.77;;
12852;SDS011;6495;51.808;7.478;2023-12-07T01:50:56;12.80;;;7.67;;
12852;SDS011;6495;51.808;7.478;2023-12-07T01:53:26;10.73;;;7.17;;
12852;SDS011;6495;51.808;7.478;2023-12-07T01:55:55;10.33;;;6.57;;
12852;SDS011;6495;51.808;7.478;2023-12-07T01:58:26;11.47;;;7.47;;
12852;SDS011;6495;51.808;7.478;2023-12-07T02:00:54;10.67;;;6.73;;
12852;SDS011;6495;51.808;7.478;2023-12-07T02:03:23;12.83;;;7.63;;
12852;SDS011;6495;51.808;7.478;2023-12-07T02:05:54;12.60;;;7.70;;
12852;SDS011;6495;51.808;7.478;2023-12-07T02:08:24;11.10;;;7.27;;
12852;SDS011;6495;51.808;7.478;2023-12-07T02:10:55;11.57;;;7.27;;
12852;SDS011;6495;51.808;7.478;2023-12-07T02:13:24;11.00;;;7.37;;
12852;SDS011;6495;51.808;7.478;2023-12-07T02:15:52;12.43;;;7.43;;
12852;SDS011;6495;51.808;7.478;2023-12-07T02:18:28;13.63;;;7.80;;
12852;SDS011;6495;51.808;7.478;2023-12-07T02:21:09;9.77;;;7.10;;
12852;SDS011;6495;51.808;7.478;2023-12-07T02:23:50;11.97;;;7.63;;
12852;SDS011;6495;51.808;7.478;2023-12-07T02:26:20;12.07;;;7.10;;
12852;SDS011;6495;51.808;7.478;2023-12-07T02:28:57;12.07;;;6.97;;
12852;SDS011;6495;51.808;7.478;2023-12-07T02:31:26;12.70;;;7.90;;
12852;SDS011;6495;51.808;7.478;2023-12-07T02:33:55;12.60;;;7.73;;
12852;SDS011;6495;51.808;7.478;2023-12-07T02:36:24;13.40;;;8.27;;
12852;SDS011;6495;51.808;7.478;2023-12-07T02:38:58;11.53;;;7.37;;
12852;SDS011;6495;51.808;7.478;2023-12-07T02:41:31;14.73;;;7.27;;
12852;SDS011;6495;51.808;7.478;2023-12-07T02:44:01;12.90;;;7.57;;
12852;SDS011;6495;51.808;7.478;2023-12-07T02:46:30;12.47;;;7.50;;
12852;SDS011;6495;51.808;7.478;2023-12-07T02:49:02;12.13;;;7.17;;
12852;SDS011;6495;51.808;7.478;2023-12-07T02:51:31;11.60;;;6.97;;
12852;SDS011;6495;51.808;7.478;2023-12-07T02:53:59;12.03;;;7.23;;
12852;SDS011;6495;51.808;7.478;2023-12-07T02:56:28;14.13;;;7.57;;
12852;SDS011;6495;51.808;7.478;2023-12-07T02:58:58;17.33;;;8.50;;
12852;SDS011;6495;51.808;7.478;2023-12-07T03:01:26;12.83;;;7.83;;
12852;SDS011;6495;51.808;7.478;2023-12-07T03:03:54;17.00;;;8.73;;
12852;SDS011;6495;51.808;7.478;2023-12-07T03:06:23;15.20;;;8.07;;
12852;SDS011;6495;51.808;7.478;2023-12-07T03:08:51;17.80;;;9.97;;
12852;SDS011;6495;51.808;7.478;2023-12-07T03:11:21;16.77;;;8.33;;
12852;SDS011;6495;51.808;7.478;2023-12-07T03:13:51;15.53;;;8.17;;
12852;SDS011;6495;51.808;7.478;2023-12-07T03:16:21;17.13;;;9.60;;
12852;SDS011;6495;51.808;7.478;2023-12-07T03:18:49;17.23;;;8.07;;
12852;SDS011;6495;51.808;7.478;2023-12-07T03:21:18;19.87;;;9.13;;
12852;SDS011;6495;51.808;7.478;2023-12-07T03:23:47;16.10;;;8.10;;
12852;SDS011;6495;51.808;7.478;2023-12-07T03:26:16;15.43;;;8.27;;
12852;SDS011;6495;51.808;7.478;2023-12-07T03:28:45;16.03;;;7.97;;
12852;SDS011;6495;51.808;7.478;2023-12-07T03:31:14;16.60;;;8.77;;
12852;SDS011;6495;51.808;7.478;2023-12-07T03:33:44;16.47;;;9.17;;
12852;SDS011;6495;51.808;7.478;2023-12-07T03:36:15;19.53;;;9.43;;
12852;SDS011;6495;51.808;7.478;2023-12-07T03:38:45;17.33;;;8.60;;
12852;SDS011;6495;51.808;7.478;2023-12-07T03:41:13;19.23;;;10.30;;
12852;SDS011;6495;51.808;7.478;2023-12-07T03:43:44;13.20;;;7.57;;
12852;SDS011;6495;51.808;7.478;2023-12-07T03:46:12;19.50;;;8.67;;
12852;SDS011;6495;51.808;7.478;2023-12-07T03:48:41;16.33;;;8.30;;
12852;SDS011;6495;51.808;7.478;2023-12-07T03:51:12;13.57;;;7.60;;
12852;SDS011;6495;51.808;7.478;2023-12-07T03:53:43;15.27;;;8.20;;
12852;SDS011;6495;51.808;7.478;2023-12-07T03:56:21;13.37;;;7.50;;
12852;SDS011;6495;51.808;7.478;2023-12-07T03:58:51;10.20;;;6.67;;
12852;SDS011;6495;51.808;7.478;2023-12-07T04:01:21;13.67;;;8.03;;
12852;SDS011;6495;51.808;7.478;2023-12-07T04:03:52;12.93;;;7.10;;
12852;SDS011;6495;51.808;7.478;2023-12-07T04:06:23;13.77;;;8.23;;
12852;SDS011;6495;51.808;7.478;2023-12-07T04:08:52;15.83;;;8.30;;
12852;SDS011;6495;51.808;7.478;2023-12-07T04:11:21;14.03;;;8.00;;
12852;SDS011;6495;51.808;7.478;2023-12-07T04:13:49;15.50;;;8.07;;
12852;SDS011;6495;51.808;7.478;2023-12-07T04:16:18;14.70;;;7.93;;
12852;SDS011;6495;51.808;7.478;2023-12-07T04:18:47;14.47;;;8.17;;
12852;SDS011;6495;51.808;7.478;2023-12-07T04:21:17;16.70;;;8.93;;
12852;SDS011;6495;51.808;7.478;2023-12-07T04:23:45;13.67;;;7.97;;
12852;SDS011;6495;51.808;7.478;2023-12-07T04:26:13;15.03;;;8.43;;
12852;SDS011;6495;51.808;7.478;2023-12-07T04:28:42;13.70;;;7.93;;
12852;SDS011;6495;51.808;7.478;2023-12-07T04:31:10;14.63;;;7.47;;
12852;SDS011;6495;51.808;7.478;2023-12-07T04:33:39;17.10;;;9.20;;
12852;SDS011;6495;51.808;7.478;2023-12-07T04:36:08;14.03;;;7.40;;
12852;SDS011;6495;51.808;7.478;2023-12-07T04:38:39;15.43;;;7.33;;
12852;SDS011;6495;51.808;7.478;2023-12-07T04:41:07;13.57;;;6.87;;
12852;SDS011;6495;51.808;7.478;2023-12-07T04:43:36;13.40;;;7.43;;
12852;SDS011;6495;51.808;7.478;2023-12-07T04:46:05;15.60;;;7.77;;
12852;SDS011;6495;51.808;7.478;2023-12-07T04:48:33;14.57;;;7.83;;
12852;SDS011;6495;51.808;7.478;2023-12-07T04:51:02;14.37;;;7.60;;
12852;SDS011;6495;51.808;7.478;2023-12-07T04:53:31;16.57;;;7.97;;
12852;SDS011;6495;51.808;7.478;2023-12-07T04:56:01;12.53;;;8.10;;
12852;SDS011;6495;51.808;7.478;2023-12-07T04:58:30;14.00;;;7.40;;
12852;SDS011;6495;51.808;7.478;2023-12-07T05:00:58;14.10;;;8.57;;
12852;SDS011;6495;51.808;7.478;2023-12-07T05:03:27;13.70;;;7.43;;
12852;SDS011;6495;51.808;7.478;2023-12-07T05:05:55;15.43;;;8.37;;
12852;SDS011;6495;51.808;7.478;2023-12-07T05:08:24;13.20;;;7.87;;
12852;SDS011;6495;51.808;7.478;2023-12-07T05:10:52;13.63;;;7.63;;
12852;SDS011;6495;51.808;7.478;2023-12-07T05:13:22;14.23;;;7.80;;
12852;SDS011;6495;51.808;7.478;2023-12-07T05:15:50;13.00;;;7.50;;
12852;SDS011;6495;51.808;7.478;2023-12-07T05:18:43;14.83;;;7.63;;
12852;SDS011;6495;51.808;7.478;2023-12-07T05:21:10;16.53;;;8.40;;
12852;SDS011;6495;51.808;7.478;2023-12-07T05:23:40;15.90;;;7.80;;
12852;SDS011;6495;51.808;7.478;2023-12-07T05:26:08;15.30;;;8.47;;
12852;SDS011;6495;51.808;7.478;2023-12-07T05:28:39;13.53;;;7.73;;
12852;SDS011;6495;51.808;7.478;2023-12-07T05:31:15;16.50;;;8.23;;
12852;SDS011;6495;51.808;7.478;2023-12-07T05:33:44;14.60;;;8.30;;
12852;SDS011;6495;51.808;7.478;2023-12-07T05:36:13;19.53;;;9.17;;
12852;SDS011;6495;51.808;7.478;2023-12-07T05:38:41;16.20;;;8.30;;
12852;SDS011;6495;51.808;7.478;2023-12-07T05:41:10;16.27;;;8.33;;
12852;SDS011;6495;51.808;7.478;2023-12-07T05:43:41;17.33;;;8.60;;
12852;SDS011;6495;51.808;7.478;2023-12-07T05:46:10;17.17;;;8.27;;
12852;SDS011;6495;51.808;7.478;2023-12-07T05:48:38;14.53;;;8.10;;
12852;SDS011;6495;51.808;7.478;2023-12-07T05:51:11;14.43;;;6.90;;
12852;SDS011;6495;51.808;7.478;2023-12-07T05:53:40;15.57;;;7.50;;
12852;SDS011;6495;51.808;7.478;2023-12-07T05:56:09;17.67;;;8.60;;
12852;SDS011;6495;51.808;7.478;2023-12-07T05:58:38;14.37;;;7.60;;
12852;SDS011;6495;51.808;7.478;2023-12-07T06:01:08;15.60;;;7.37;;
12852;SDS011;6495;51.808;7.478;2023-12-07T06:03:37;16.00;;;7.13;;
12852;SDS011;6495;51.808;7.478;2023-12-07T06:06:06;15.43;;;7.93;;
12852;SDS011;6495;51.808;7.478;2023-12-07T06:08:37;16.07;;;9.10;;
12852;SDS011;6495;51.808;7.478;2023-12-07T06:11:06;16.97;;;8.70;;
12852;SDS011;6495;51.808;7.478;2023-12-07T06:13:35;14.33;;;7.50;;
12852;SDS011;6495;51.808;7.478;2023-12-07T06:16:05;14.60;;;7.00;;
12852;SDS011;6495;51.808;7.478;2023-12-07T06:18:35;16.70;;;8.07;;
12852;SDS011;6495;51.808;7.478;2023-12-07T06:21:04;16.53;;;8.57;;
12852;SDS011;6495;51.808;7.478;2023-12-07T06:23:33;16.73;;;8.37;;
12852;SDS011;6495;51.808;7.478;2023-12-07T06:26:01;15.43;;;7.97;;
12852;SDS011;6495;51.808;7.478;2023-12-07T06:28:31;18.90;;;7.80;;
12852;SDS011;6495;51.808;7.478;2023-12-07T06:31:04;19.07;;;9.50;;
12852;SDS011;6495;51.808;7.478;2023-12-07T06:33:36;15.87;;;8.67;;
12852;SDS011;6495;51.808;7.478;2023-12-07T06:36:04;22.70;;;9.43;;
12852;SDS011;6495;51.808;7.478;2023-12-07T06:38:34;22.73;;;9.73;;
12852;SDS011;6495;51.808;7.478;2023-12-07T06:41:02;19.37;;;8.77;;
12852;SDS011;6495;51.808;7.478;2023-12-07T06:43:31;21.47;;;8.80;;
12852;SDS011;6495;51.808;7.478;2023-12-07T06:45:59;16.13;;;7.77;;
12852;SDS011;6495;51.808;7.478;2023-12-07T06:48:28;19.27;;;9.30;;
12852;SDS011;6495;51.808;7.478;2023-12-07T06:50:58;22.70;;;9.43;;
12852;SDS011;6495;51.808;7.478;2023-12-07T06:53:27;27.17;;;9.50;;
12852;SDS011;6495;51.808;7.478;2023-12-07T06:55:55;27.37;;;8.87;;
12852;SDS011;6495;51.808;7.478;2023-12-07T06:58:24;19.83;;;9.60;;
12852;SDS011;6495;51.808;7.478;2023-12-07T07:00:52;20.87;;;8.67;;
12852;SDS011;6495;51.808;7.478;2023-12-07T07:03:21;23.03;;;9.90;;
12852;SDS011;6495;51.808;7.478;2023-12-07T07:05:49;23.77;;;9.80;;
12852;SDS011;6495;51.808;7.478;2023-12-07T07:08:19;19.60;;;9.00;;
12852;SDS011;6495;51.808;7.478;2023-12-07T07:10:48;20.27;;;7.97;;
12852;SDS011;6495;51.808;7.478;2023-12-07T07:13:16;20.50;;;8.33;;
12852;SDS011;6495;51.808;7.478;2023-12-07T07:15:46;20.97;;;8.80;;
12852;SDS011;6495;51.808;7.478;2023-12-07T07:18:15;20.43;;;9.00;;
12852;SDS011;6495;51.808;7.478;2023-12-07T07:20:44;22.30;;;9.83;;
12852;SDS011;6495;51.808;7.478;2023-12-07T07:23:13;15.93;;;7.83;;
12852;SDS011;6495;51.808;7.478;2023-12-07T07:25:43;18.70;;;8.60;;
12852;SDS011;6495;51.808;7.478;2023-12-07T07:28:12;19.57;;;9.27;;
12852;SDS011;6495;51.808;7.478;2023-12-07T07:30:40;26.93;;;10.30;;
12852;SDS011;6495;51.808;7.478;2023-12-07T07:33:09;24.37;;;9.83;;
12852;SDS011;6495;51.808;7.478;2023-12-07T07:35:38;18.87;;;8.03;;
12852;SDS011;6495;51.808;7.478;2023-12-07T07:38:06;19.97;;;9.23;;
12852;SDS011;6495;51.808;7.478;2023-12-07T07:40:35;22.90;;;8.27;;
12852;SDS011;6495;51.808;7.478;2023-12-07T07:43:05;22.93;;;9.93;;
12852;SDS011;6495;51.808;7.478;2023-12-07T07:45:34;16.37;;;8.50;;
12852;SDS011;6495;51.808;7.478;2023-12-07T07:48:05;18.17;;;7.57;;
12852;SDS011;6495;51.808;7.478;2023-12-07T07:50:34;17.13;;;7.50;;
12852;SDS011;6495;51.808;7.478;2023-12-07T07:53:02;17.43;;;7.23;;
12852;SDS011;6495;51.808;7.478;2023-12-07T07:55:31;12.80;;;7.00;;
12852;SDS011;6495;51.808;7.478;2023-12-07T07:58:00;15.43;;;6.40;;
12852;SDS011;6495;51.808;7.478;2023-12-07T08:00:31;14.93;;;6.53;;
12852;SDS011;6495;51.808;7.478;2023-12-07T08:03:01;11.17;;;4.80;;
12852;SDS011;6495;51.808;7.478;2023-12-07T08:05:30;11.40;;;6.37;;
12852;SDS011;6495;51.808;7.478;2023-12-07T08:07:59;12.93;;;6.30;;
12852;SDS011;6495;51.808;7.478;2023-12-07T08:10:28;13.03;;;6.00;;
12852;SDS011;6495;51.808;7.478;2023-12-07T08:12:56;11.03;;;5.50;;
12852;SDS011;6495;51.808;7.478;2023-12-07T08:15:25;13.80;;;6.50;;
12852;SDS011;6495;51.808;7.478;2023-12-07T08:17:55;14.63;;;6.00;;
12852;SDS011;6495;51.808;7.478;2023-12-07T08:20:23;14.67;;;6.63;;
12852;SDS011;6495;51.808;7.478;2023-12-07T08:22:52;15.67;;;7.30;;
12852;SDS011;6495;51.808;7.478;2023-12-07T08:25:21;14.57;;;7.53;;
12852;SDS011;6495;51.808;7.478;2023-12-07T08:27:50;19.10;;;8.60;;
12852;SDS011;6495;51.808;7.478;2023-12-07T08:30:18;18.13;;;8.73;;
12852;SDS011;6495;51.808;7.478;2023-12-07T08:32:46;21.60;;;8.67;;
12852;SDS011;6495;51.808;7.478;2023-12-07T08:35:16;14.07;;;8.10;;
12852;SDS011;6495;51.808;7.478;2023-12-07T08:37:45;16.03;;;8.20;;
12852;SDS011;6495;51.808;7.478;2023-12-07T08:40:17;17.57;;;8.27;;
12852;SDS011;6495;51.808;7.478;2023-12-07T08:42:46;20.43;;;8.63;;
12852;SDS011;6495;51.808;7.478;2023-12-07T08:45:18;21.13;;;9.67;;
12852;SDS011;6495;51.808;7.478;2023-12-07T08:47:47;17.33;;;8.77;;
12852;SDS011;6495;51.808;7.478;2023-12-07T08:50:17;18.23;;;9.00;;
12852;SDS011;6495;51.808;7.478;2023-12-07T08:52:46;23.00;;;9.70;;
12852;SDS011;6495;51.808;7.478;2023-12-07T08:55:22;16.70;;;8.77;;
12852;SDS011;6495;51.808;7.478;2023-12-07T08:57:52;20.70;;;10.33;;
12852;SDS011;6495;51.808;7.478;2023-12-07T09:00:21;24.70;;;11.07;;
12852;SDS011;6495;51.808;7.478;2023-12-07T09:02:52;23.27;;;10.00;;
12852;SDS011;6495;51.808;7.478;2023-12-07T09:05:22;22.57;;;10.43;;
12852;SDS011;6495;51.808;7.478;2023-12-07T09:07:50;25.30;;;9.87;;
12852;SDS011;6495;51.808;7.478;2023-12-07T09:10:20;19.90;;;10.00;;
12852;SDS011;6495;51.808;7.478;2023-12-07T09:12:48;21.37;;;10.83;;
12852;SDS011;6495;51.808;7.478;2023-12-07T09:15:17;25.20;;;11.30;;
12852;SDS011;6495;51.808;7.478;2023-12-07T09:17:45;25.87;;;11.70;;
12852;SDS011;6495;51.808;7.478;2023-12-07T09:20:15;27.60;;;10.17;;
12852;SDS011;6495;51.808;7.478;2023-12-07T09:22:45;27.00;;;11.73;;
12852;SDS011;6495;51.808;7.478;2023-12-07T09:25:15;27.80;;;11.53;;
12852;SDS011;6495;51.808;7.478;2023-12-07T09:27:44;23.53;;;11.13;;
12852;SDS011;6495;51.808;7.478;2023-12-07T09:30:17;24.77;;;11.37;;
12852;SDS011;6495;51.808;7.478;2023-12-07T09:32:45;23.23;;;11.43;;
12852;SDS011;6495;51.808;7.478;2023-12-07T09:35:14;22.37;;;10.33;;
12852;SDS011;6495;51.808;7.478;2023-12-07T09:37:47;29.50;;;11.80;;
12852;SDS011;6495;51.808;7.478;2023-12-07T09:40:17;26.43;;;12.70;;
12852;SDS011;6495;51.808;7.478;2023-12-07T09:42:48;23.13;;;10.83;;
12852;SDS011;6495;51.808;7.478;2023-12-07T09:45:18;20.20;;;10.77;;
12852;SDS011;6495;51.808;7.478;2023-12-07T09:47:49;23.37;;;10.50;;
12852;SDS011;6495;51.808;7.478;2023-12-07T09:50:20;18.67;;;8.73;;
12852;SDS011;6495;51.808;7.478;2023-12-07T09:52:53;20.17;;;9.63;;
12852;SDS011;6495;51.808;7.478;2023-12-07T09:55:34;21.23;;;9.67;;
12852;SDS011;6495;51.808;7.478;2023-12-07T09:58:04;19.80;;;9.13;;
12852;SDS011;6495;51.808;7.478;2023-12-07T10:00:36;22.17;;;11.00;;
12852;SDS011;6495;51.808;7.478;2023-12-07T10:03:07;20.00;;;8.80;;
12852;SDS011;6495;51.808;7.478;2023-12-07T10:05:56;18.53;;;9.23;;
12852;SDS011;6495;51.808;7.478;2023-12-07T10:08:28;25.07;;;9.90;;
12852;SDS011;6495;51.808;7.478;2023-12-07T10:11:01;16.93;;;8.83;;
12852;SDS011;6495;51.808;7.478;2023-12-07T10:13:32;20.33;;;10.37;;
12852;SDS011;6495;51.808;7.478;2023-12-07T10:16:09;19.37;;;8.73;;
12852;SDS011;6495;51.808;7.478;2023-12-07T10:18:42;19.50;;;10.60;;
12852;SDS011;6495;51.808;7.478;2023-12-07T10:21:12;18.20;;;9.80;;
12852;SDS011;6495;51.808;7.478;2023-12-07T10:23:42;22.33;;;10.67;;
12852;SDS011;6495;51.808;7.478;2023-12-07T10:26:13;18.20;;;9.63;;
12852;SDS011;6495;51.808;7.478;2023-12-07T10:28:48;18.77;;;9.70;;
12852;SDS011;6495;51.808;7.478;2023-12-07T10:31:20;20.10;;;9.80;;
12852;SDS011;6495;51.808;7.478;2023-12-07T10:33:50;19.33;;;10.40;;
12852;SDS011;6495;51.808;7.478;2023-12-07T10:36:19;23.03;;;10.07;;
12852;SDS011;6495;51.808;7.478;2023-12-07T10:38:49;17.60;;;9.80;;
12852;SDS011;6495;51.808;7.478;2023-12-07T10:41:18;16.00;;;8.63;;
12852;SDS011;6495;51.808;7.478;2023-12-07T10:43:48;18.70;;;9.87;;
12852;SDS011;6495;51.808;7.478;2023-12-07T10:46:21;21.40;;;9.87;;
12852;SDS011;6495;51.808;7.478;2023-12-07T10:48:51;17.60;;;9.00;;
12852;SDS011;6495;51.808;7.478;2023-12-07T10:51:28;17.70;;;9.60;;
12852;SDS011;6495;51.808;7.478;2023-12-07T10:54:04;18.67;;;9.63;;
12852;SDS011;6495;51.808;7.478;2023-12-07T10:56:37;22.10;;;9.43;;
12852;SDS011;6495;51.808;7.478;2023-12-07T10:59:10;19.97;;;10.37;;
12852;SDS011;6495;51.808;7.478;2023-12-07T11:01:56;20.10;;;9.73;;
12852;SDS011;6495;51.808;7.478;2023-12-07T11:04:26;17.73;;;8.60;;
12852;SDS011;6495;51.808;7.478;2023-12-07T11:06:56;14.23;;;7.43;;
12852;SDS011;6495;51.808;7.478;2023-12-07T11:09:35;16.17;;;8.93;;
12852;SDS011;6495;51.808;7.478;2023-12-07T11:12:17;18.97;;;8.80;;
12852;SDS011;6495;51.808;7.478;2023-12-07T11:14:55;20.97;;;9.07;;
12852;SDS011;6495;51.808;7.478;2023-12-07T11:17:24;22.43;;;9.47;;
12852;SDS011;6495;51.808;7.478;2023-12-07T11:19:54;20.23;;;10.30;;
12852;SDS011;6495;51.808;7.478;2023-12-07T11:22:23;19.10;;;10.63;;
12852;SDS011;6495;51.808;7.478;2023-12-07T11:24:55;17.30;;;8.67;;
12852;SDS011;6495;51.808;7.478;2023-12-07T11:27:31;20.13;;;9.53;;
12852;SDS011;6495;51.808;7.478;2023-12-07T11:30:00;20.40;;;10.07;;
12852;SDS011;6495;51.808;7.478;2023-12-07T11:32:30;19.00;;;9.43;;
12852;SDS011;6495;51.808;7.478;2023-12-07T11:35:04;16.63;;;9.70;;
12852;SDS011;6495;51.808;7.478;2023-12-07T11:40:35;16.73;;;8.70;;
12852;SDS011;6495;51.808;7.478;2023-12-07T11:43:07;14.60;;;9.07;;
12852;SDS011;6495;51.808;7.478;2023-12-07T11:45:46;18.43;;;9.17;;
12852;SDS011;6495;51.808;7.478;2023-12-07T11:48:16;17.17;;;8.60;;
12852;SDS011;6495;51.808;7.478;2023-12-07T11:50:56;13.90;;;8.93;;
12852;SDS011;6495;51.808;7.478;2023-12-07T11:53:27;15.43;;;8.10;;
12852;SDS011;6495;51.808;7.478;2023-12-07T11:55:59;24.57;;;10.00;;
12852;SDS011;6495;51.808;7.478;2023-12-07T11:58:31;18.10;;;8.83;;
12852;SDS011;6495;51.808;7.478;2023-12-07T12:01:06;15.80;;;8.97;;
12852;SDS011;6495;51.808;7.478;2023-12-07T12:03:35;17.40;;;9.27;;
12852;SDS011;6495;51.808;7.478;2023-12-07T12:06:05;15.80;;;8.97;;
12852;SDS011;6495;51.808;7.478;2023-12-07T12:08:38;17.50;;;8.57;;
12852;SDS011;6495;51.808;7.478;2023-12-07T12:11:10;17.97;;;8.63;;
12852;SDS011;6495;51.808;7.478;2023-12-07T12:13:38;16.87;;;9.03;;
12852;SDS011;6495;51.808;7.478;2023-12-07T12:16:07;20.00;;;10.30;;
12852;SDS011;6495;51.808;7.478;2023-12-07T12:18:37;18.40;;;8.67;;
12852;SDS011;6495;51.808;7.478;2023-12-07T12:21:06;15.80;;;7.70;;
12852;SDS011;6495;51.808;7.478;2023-12-07T12:23:36;13.43;;;7.40;;
12852;SDS011;6495;51.808;7.478;2023-12-07T12:26:06;14.70;;;7.63;;
12852;SDS011;6495;51.808;7.478;2023-12-07T12:28:39;15.00;;;8.00;;
12852;SDS011;6495;51.808;7.478;2023-12-07T12:31:11;16.40;;;8.93;;
12852;SDS011;6495;51.808;7.478;2023-12-07T12:33:41;15.00;;;7.83;;
12852;SDS011;6495;51.808;7.478;2023-12-07T12:36:09;13.00;;;6.83;;
12852;SDS011;6495;51.808;7.478;2023-12-07T12:38:38;15.37;;;7.47;;
12852;SDS011;6495;51.808;7.478;2023-12-07T12:41:10;13.87;;;7.07;;
12852;SDS011;6495;51.808;7.478;2023-12-07T12:43:41;17.07;;;8.33;;
12852;SDS011;6495;51.808;7.478;2023-12-07T12:46:13;13.77;;;7.70;;
12852;SDS011;6495;51.808;7.478;2023-12-07T12:48:52;12.87;;;6.77;;
12852;SDS011;6495;51.808;7.478;2023-12-07T12:51:25;13.97;;;7.40;;
12852;SDS011;6495;51.808;7.478;2023-12-07T12:53:56;14.53;;;7.33;;
12852;SDS011;6495;51.808;7.478;2023-12-07T12:56:26;15.83;;;8.23;;
12852;SDS011;6495;51.808;7.478;2023-12-07T12:58:57;12.63;;;6.63;;
12852;SDS011;6495;51.808;7.478;2023-12-07T13:01:31;12.77;;;7.10;;
12852;SDS011;6495;51.808;7.478;2023-12-07T13:04:01;8.20;;;5.00;;
12852;SDS011;6495;51.808;7.478;2023-12-07T13:06:30;11.83;;;6.90;;
12852;SDS011;6495;51.808;7.478;2023-12-07T13:09:02;11.90;;;6.77;;
12852;SDS011;6495;51.808;7.478;2023-12-07T13:11:30;15.43;;;7.53;;
12852;SDS011;6495;51.808;7.478;2023-12-07T13:14:00;13.67;;;8.20;;
12852;SDS011;6495;51.808;7.478;2023-12-07T13:16:33;12.17;;;7.37;;
12852;SDS011;6495;51.808;7.478;2023-12-07T13:19:04;15.10;;;7.50;;
12852;SDS011;6495;51.808;7.478;2023-12-07T13:21:34;12.20;;;7.47;;
12852;SDS011;6495;51.808;7.478;2023-12-07T13:24:02;14.80;;;6.93;;
12852;SDS011;6495;51.808;7.478;2023-12-07T13:26:31;12.93;;;5.67;;
12852;SDS011;6495;51.808;7.478;2023-12-07T13:29:01;10.07;;;6.27;;
12852;SDS011;6495;51.808;7.478;2023-12-07T13:31:30;12.20;;;6.63;;
12852;SDS011;6495;51.808;7.478;2023-12-07T13:34:00;13.43;;;6.77;;
12852;SDS011;6495;51.808;7.478;2023-12-07T13:36:37;10.47;;;6.03;;
12852;SDS011;6495;51.808;7.478;2023-12-07T13:39:05;9.53;;;5.77;;
12852;SDS011;6495;51.808;7.478;2023-12-07T13:41:40;9.97;;;5.97;;
12852;SDS011;6495;51.808;7.478;2023-12-07T13:44:09;9.50;;;6.27;;
12852;SDS011;6495;51.808;7.478;2023-12-07T13:46:42;9.53;;;4.90;;
12852;SDS011;6495;51.808;7.478;2023-12-07T13:49:13;12.90;;;6.57;;
12852;SDS011;6495;51.808;7.478;2023-12-07T13:51:53;11.67;;;6.13;;
12852;SDS011;6495;51.808;7.478;2023-12-07T13:54:22;14.10;;;6.27;;
12852;SDS011;6495;51.808;7.478;2023-12-07T13:57:10;8.77;;;5.77;;
12852;SDS011;6495;51.808;7.478;2023-12-07T13:59:40;12.47;;;5.93;;
12852;SDS011;6495;51.808;7.478;2023-12-07T14:02:08;12.10;;;6.40;;
12852;SDS011;6495;51.808;7.478;2023-12-07T14:04:38;11.50;;;6.27;;
12852;SDS011;6495;51.808;7.478;2023-12-07T14:07:07;12.97;;;6.47;;
12852;SDS011;6495;51.808;7.478;2023-12-07T14:09:40;11.43;;;6.33;;
12852;SDS011;6495;51.808;7.478;2023-12-07T14:12:23;13.40;;;6.20;;
12852;SDS011;6495;51.808;7.478;2023-12-07T14:14:54;11.33;;;6.13;;
12852;SDS011;6495;51.808;7.478;2023-12-07T14:17:22;12.03;;;5.83;;
12852;SDS011;6495;51.808;7.478;2023-12-07T14:19:54;11.60;;;6.67;;
12852;SDS011;6495;51.808;7.478;2023-12-07T14:22:43;10.03;;;5.27;;
12852;SDS011;6495;51.808;7.478;2023-12-07T14:25:12;8.67;;;5.67;;
12852;SDS011;6495;51.808;7.478;2023-12-07T14:27:42;8.80;;;5.33;;
12852;SDS011;6495;51.808;7.478;2023-12-07T14:30:13;9.30;;;5.27;;
12852;SDS011;6495;51.808;7.478;2023-12-07T14:32:43;7.57;;;4.70;;
12852;SDS011;6495;51.808;7.478;2023-12-07T14:35:18;8.17;;;4.77;;
12852;SDS011;6495;51.808;7.478;2023-12-07T14:37:47;8.93;;;5.70;;
12852;SDS011;6495;51.808;7.478;2023-12-07T14:40:16;8.03;;;4.97;;
12852;SDS011;6495;51.808;7.478;2023-12-07T14:42:45;10.87;;;4.60;;
12852;SDS011;6495;51.808;7.478;2023-12-07T14:45:15;9.17;;;5.50;;
12852;SDS011;6495;51.808;7.478;2023-12-07T14:47:46;9.00;;;5.47;;
12852;SDS011;6495;51.808;7.478;2023-12-07T14:50:15;8.67;;;4.60;;
12852;SDS011;6495;51.808;7.478;2023-12-07T14:52:44;9.93;;;5.37;;
12852;SDS011;6495;51.808;7.478;2023-12-07T14:55:12;8.17;;;4.97;;
12852;SDS011;6495;51.808;7.478;2023-12-07T14:57:41;8.33;;;4.73;;
12852;SDS011;6495;51.808;7.478;2023-12-07T15:00:09;9.47;;;4.90;;
12852;SDS011;6495;51.808;7.478;2023-12-07T15:02:40;7.80;;;4.80;;
12852;SDS011;6495;51.808;7.478;2023-12-07T15:05:09;6.27;;;4.17;;
12852;SDS011;6495;51.808;7.478;2023-12-07T15:07:38;10.93;;;4.97;;
12852;SDS011;6495;51.808;7.478;2023-12-07T15:10:07;8.87;;;4.93;;